sensor_id;sensor_type;location;lat;lon;timestamp;P1;durP1;ratioP1;P2;durP2;ratioP2
7027;SDS011;3555;53.248;10.336;2023-02-28T00:01:11;8.43;;;4.57;;
7027;SDS011;3555;53.248;10.336;2023-02-28T00:03:39;7.93;;;4.73;;
7027;SDS011;3555;53.248;10.336;2023-02-28T00:06:06;7.57;;;4.50;;
7027;SDS011;3555;53.248;10.336;2023-02-28T00:08:34;7.83;;;4.70;;
7027;SDS011;3555;53.248;10.336;2023-02-28T00:11:03;7.23;;;5.57;;
7027;SDS011;3555;53.248;10.336;2023-02-28T00:13:31;9.63;;;5.93;;
7027;SDS011;3555;53.248;10.336;2023-02-28T00:16:00;8.50;;;6.03;;
7027;SDS011;3555;53.248;10.336;2023-02-28T00:18:28;7.67;;;5.97;;
7027;SDS011;3555;53.248;10.336;2023-02-28T00:20:55;8.43;;;6.23;;
7027;SDS011;3555;53.248;10.336;2023-02-28T00:23:23;6.80;;;4.53;;
7027;SDS011;3555;53.248;10.336;2023-02-28T00:25:50;5.63;;;3.50;;
7027;SDS011;3555;53.248;10.336;2023-02-28T00:28:19;4.80;;;3.53;;
7027;SDS011;3555;53.248;10.336;2023-02-28T00:30:46;5.77;;;4.00;;
7027;SDS011;3555;53.248;10.336;2023-02-28T00:33:13;5.47;;;3.57;;
7027;SDS011;3555;53.248;10.336;2023-02-28T00:35:40;5.90;;;3.63;;
7027;SDS011;3555;53.248;10.336;2023-02-28T00:38:07;5.57;;;3.53;;
7027;SDS011;3555;53.248;10.336;2023-02-28T00:40:34;5.67;;;4.03;;
7027;SDS011;3555;53.248;10.336;2023-02-28T00:43:01;4.53;;;3.30;;
7027;SDS011;3555;53.248;10.336;2023-02-28T00:45:30;7.17;;;4.17;;
7027;SDS011;3555;53.248;10.336;2023-02-28T00:47:57;5.40;;;3.50;;
7027;SDS011;3555;53.248;10.336;2023-02-28T00:50:24;6.50;;;3.47;;
7027;SDS011;3555;53.248;10.336;2023-02-28T00:52:50;5.07;;;3.80;;
7027;SDS011;3555;53.248;10.336;2023-02-28T00:55:17;6.10;;;3.73;;
7027;SDS011;3555;53.248;10.336;2023-02-28T00:57:44;6.10;;;3.73;;
7027;SDS011;3555;53.248;10.336;2023-02-28T01:00:12;6.37;;;3.90;;
7027;SDS011;3555;53.248;10.336;2023-02-28T01:02:40;5.83;;;3.50;;
7027;SDS011;3555;53.248;10.336;2023-02-28T01:05:07;7.27;;;3.97;;
7027;SDS011;3555;53.248;10.336;2023-02-28T01:07:34;4.90;;;3.20;;
7027;SDS011;3555;53.248;10.336;2023-02-28T01:10:01;5.60;;;3.70;;
7027;SDS011;3555;53.248;10.336;2023-02-28T01:12:28;4.73;;;3.30;;
7027;SDS011;3555;53.248;10.336;2023-02-28T01:14:55;5.23;;;3.73;;
7027;SDS011;3555;53.248;10.336;2023-02-28T01:17:22;5.43;;;3.20;;
7027;SDS011;3555;53.248;10.336;2023-02-28T01:19:50;5.80;;;3.37;;
7027;SDS011;3555;53.248;10.336;2023-02-28T01:22:19;7.10;;;3.40;;
7027;SDS011;3555;53.248;10.336;2023-02-28T01:24:46;4.57;;;3.23;;
7027;SDS011;3555;53.248;10.336;2023-02-28T01:27:13;8.80;;;3.80;;
7027;SDS011;3555;53.248;10.336;2023-02-28T01:29:40;4.80;;;3.50;;
7027;SDS011;3555;53.248;10.336;2023-02-28T01:32:07;5.27;;;3.57;;
7027;SDS011;3555;53.248;10.336;2023-02-28T01:34:34;4.83;;;3.37;;
7027;SDS011;3555;53.248;10.336;2023-02-28T01:37:02;5.97;;;3.43;;
7027;SDS011;3555;53.248;10.336;2023-02-28T01:39:29;9.17;;;3.47;;
7027;SDS011;3555;53.248;10.336;2023-02-28T01:41:56;5.77;;;3.20;;
7027;SDS011;3555;53.248;10.336;2023-02-28T01:47:27;3.77;;;3.30;;
7027;SDS011;3555;53.248;10.336;2023-02-28T01:49:56;6.20;;;3.67;;
7027;SDS011;3555;53.248;10.336;2023-02-28T01:52:26;6.27;;;3.40;;
7027;SDS011;3555;53.248;10.336;2023-02-28T01:54:54;6.40;;;3.40;;
7027;SDS011;3555;53.248;10.336;2023-02-28T01:57:24;5.57;;;3.43;;
7027;SDS011;3555;53.248;10.336;2023-02-28T01:59:56;5.13;;;3.40;;
7027;SDS011;3555;53.248;10.336;2023-02-28T02:02:25;5.90;;;3.23;;
7027;SDS011;3555;53.248;10.336;2023-02-28T02:04:54;6.03;;;3.57;;
7027;SDS011;3555;53.248;10.336;2023-02-28T02:07:23;5.40;;;3.43;;
7027;SDS011;3555;53.248;10.336;2023-02-28T02:10:02;5.67;;;3.20;;
7027;SDS011;3555;53.248;10.336;2023-02-28T02:12:34;5.77;;;3.53;;
7027;SDS011;3555;53.248;10.336;2023-02-28T02:15:22;5.13;;;3.00;;
7027;SDS011;3555;53.248;10.336;2023-02-28T02:17:53;6.50;;;3.57;;
7027;SDS011;3555;53.248;10.336;2023-02-28T02:20:32;4.17;;;2.80;;
7027;SDS011;3555;53.248;10.336;2023-02-28T02:23:25;5.27;;;3.13;;
7027;SDS011;3555;53.248;10.336;2023-02-28T02:26:16;5.33;;;3.57;;
7027;SDS011;3555;53.248;10.336;2023-02-28T02:29:14;5.37;;;3.27;;
7027;SDS011;3555;53.248;10.336;2023-02-28T02:32:14;5.40;;;3.60;;
7027;SDS011;3555;53.248;10.336;2023-02-28T02:34:58;4.13;;;3.13;;
7027;SDS011;3555;53.248;10.336;2023-02-28T02:37:33;4.97;;;3.13;;
7027;SDS011;3555;53.248;10.336;2023-02-28T02:40:09;3.63;;;3.23;;
7027;SDS011;3555;53.248;10.336;2023-02-28T02:42:41;6.80;;;3.30;;
7027;SDS011;3555;53.248;10.336;2023-02-28T02:45:15;5.97;;;3.07;;
7027;SDS011;3555;53.248;10.336;2023-02-28T02:47:45;5.10;;;3.67;;
7027;SDS011;3555;53.248;10.336;2023-02-28T02:50:15;5.37;;;3.43;;
7027;SDS011;3555;53.248;10.336;2023-02-28T02:52:46;5.43;;;3.23;;
7027;SDS011;3555;53.248;10.336;2023-02-28T02:55:17;6.40;;;3.20;;
7027;SDS011;3555;53.248;10.336;2023-02-28T02:57:47;4.57;;;2.93;;
7027;SDS011;3555;53.248;10.336;2023-02-28T03:00:17;6.83;;;3.57;;
7027;SDS011;3555;53.248;10.336;2023-02-28T03:02:49;5.67;;;3.07;;
7027;SDS011;3555;53.248;10.336;2023-02-28T03:05:21;3.80;;;3.27;;
7027;SDS011;3555;53.248;10.336;2023-02-28T03:07:52;4.17;;;2.63;;
7027;SDS011;3555;53.248;10.336;2023-02-28T03:10:28;6.93;;;3.30;;
7027;SDS011;3555;53.248;10.336;2023-02-28T03:13:11;5.77;;;3.27;;
7027;SDS011;3555;53.248;10.336;2023-02-28T03:16:03;4.87;;;3.17;;
7027;SDS011;3555;53.248;10.336;2023-02-28T03:18:47;4.57;;;3.20;;
7027;SDS011;3555;53.248;10.336;2023-02-28T03:21:23;5.57;;;3.10;;
7027;SDS011;3555;53.248;10.336;2023-02-28T03:23:56;3.63;;;2.63;;
7027;SDS011;3555;53.248;10.336;2023-02-28T03:26:29;4.90;;;3.17;;
7027;SDS011;3555;53.248;10.336;2023-02-28T03:29:02;5.03;;;3.47;;
7027;SDS011;3555;53.248;10.336;2023-02-28T03:31:32;3.57;;;2.80;;
7027;SDS011;3555;53.248;10.336;2023-02-28T03:34:04;4.87;;;3.33;;
7027;SDS011;3555;53.248;10.336;2023-02-28T03:36:36;3.17;;;2.73;;
7027;SDS011;3555;53.248;10.336;2023-02-28T03:39:09;7.93;;;3.00;;
7027;SDS011;3555;53.248;10.336;2023-02-28T03:41:41;5.87;;;2.93;;
7027;SDS011;3555;53.248;10.336;2023-02-28T03:44:13;5.00;;;2.83;;
7027;SDS011;3555;53.248;10.336;2023-02-28T03:46:45;4.17;;;3.27;;
7027;SDS011;3555;53.248;10.336;2023-02-28T03:49:20;4.57;;;2.80;;
7027;SDS011;3555;53.248;10.336;2023-02-28T03:51:52;4.47;;;2.83;;
7027;SDS011;3555;53.248;10.336;2023-02-28T03:54:21;4.03;;;2.77;;
7027;SDS011;3555;53.248;10.336;2023-02-28T03:56:55;4.47;;;2.50;;
7027;SDS011;3555;53.248;10.336;2023-02-28T03:59:26;4.80;;;3.10;;
7027;SDS011;3555;53.248;10.336;2023-02-28T04:01:56;5.60;;;2.97;;
7027;SDS011;3555;53.248;10.336;2023-02-28T04:04:24;3.83;;;2.70;;
7027;SDS011;3555;53.248;10.336;2023-02-28T04:06:53;5.50;;;3.00;;
7027;SDS011;3555;53.248;10.336;2023-02-28T04:09:28;6.30;;;2.70;;
7027;SDS011;3555;53.248;10.336;2023-02-28T04:11:54;3.10;;;2.40;;
7027;SDS011;3555;53.248;10.336;2023-02-28T04:14:21;5.47;;;2.87;;
7027;SDS011;3555;53.248;10.336;2023-02-28T04:16:48;4.40;;;2.80;;
7027;SDS011;3555;53.248;10.336;2023-02-28T04:19:17;3.50;;;2.60;;
7027;SDS011;3555;53.248;10.336;2023-02-28T04:21:44;4.27;;;2.73;;
7027;SDS011;3555;53.248;10.336;2023-02-28T04:24:14;3.63;;;2.50;;
7027;SDS011;3555;53.248;10.336;2023-02-28T04:26:43;4.50;;;2.70;;
7027;SDS011;3555;53.248;10.336;2023-02-28T04:29:11;5.67;;;3.00;;
7027;SDS011;3555;53.248;10.336;2023-02-28T04:31:39;3.97;;;2.73;;
7027;SDS011;3555;53.248;10.336;2023-02-28T04:34:06;4.90;;;2.83;;
7027;SDS011;3555;53.248;10.336;2023-02-28T04:36:33;4.70;;;2.73;;
7027;SDS011;3555;53.248;10.336;2023-02-28T04:39:00;5.67;;;2.73;;
7027;SDS011;3555;53.248;10.336;2023-02-28T04:41:30;3.87;;;2.70;;
7027;SDS011;3555;53.248;10.336;2023-02-28T04:43:57;4.10;;;2.83;;
7027;SDS011;3555;53.248;10.336;2023-02-28T04:46:24;4.53;;;2.60;;
7027;SDS011;3555;53.248;10.336;2023-02-28T04:48:50;3.43;;;2.70;;
7027;SDS011;3555;53.248;10.336;2023-02-28T04:51:18;4.73;;;2.67;;
7027;SDS011;3555;53.248;10.336;2023-02-28T04:53:45;6.27;;;3.00;;
7027;SDS011;3555;53.248;10.336;2023-02-28T04:56:13;6.80;;;2.90;;
7027;SDS011;3555;53.248;10.336;2023-02-28T04:58:43;4.27;;;2.67;;
7027;SDS011;3555;53.248;10.336;2023-02-28T05:01:17;3.67;;;2.57;;
7027;SDS011;3555;53.248;10.336;2023-02-28T05:03:48;5.60;;;2.87;;
7027;SDS011;3555;53.248;10.336;2023-02-28T05:06:16;4.93;;;2.83;;
7027;SDS011;3555;53.248;10.336;2023-02-28T05:08:43;4.57;;;2.70;;
7027;SDS011;3555;53.248;10.336;2023-02-28T05:11:13;2.70;;;2.50;;
7027;SDS011;3555;53.248;10.336;2023-02-28T05:13:44;5.23;;;2.60;;
7027;SDS011;3555;53.248;10.336;2023-02-28T05:16:11;6.40;;;2.73;;
7027;SDS011;3555;53.248;10.336;2023-02-28T05:18:38;3.43;;;2.43;;
7027;SDS011;3555;53.248;10.336;2023-02-28T05:21:05;5.60;;;2.77;;
7027;SDS011;3555;53.248;10.336;2023-02-28T05:23:32;4.87;;;2.73;;
7027;SDS011;3555;53.248;10.336;2023-02-28T05:25:59;3.13;;;2.13;;
7027;SDS011;3555;53.248;10.336;2023-02-28T05:28:26;4.70;;;2.83;;
7027;SDS011;3555;53.248;10.336;2023-02-28T05:30:54;3.57;;;2.43;;
7027;SDS011;3555;53.248;10.336;2023-02-28T05:33:21;4.67;;;2.70;;
7027;SDS011;3555;53.248;10.336;2023-02-28T05:35:48;3.83;;;2.50;;
7027;SDS011;3555;53.248;10.336;2023-02-28T05:38:14;3.70;;;2.47;;
7027;SDS011;3555;53.248;10.336;2023-02-28T05:40:42;2.80;;;2.50;;
7027;SDS011;3555;53.248;10.336;2023-02-28T05:43:10;3.90;;;2.80;;
7027;SDS011;3555;53.248;10.336;2023-02-28T05:45:37;2.97;;;2.50;;
7027;SDS011;3555;53.248;10.336;2023-02-28T05:48:05;3.07;;;2.40;;
7027;SDS011;3555;53.248;10.336;2023-02-28T05:50:33;6.27;;;2.53;;
7027;SDS011;3555;53.248;10.336;2023-02-28T05:53:01;4.30;;;2.57;;
7027;SDS011;3555;53.248;10.336;2023-02-28T05:55:28;4.90;;;2.70;;
7027;SDS011;3555;53.248;10.336;2023-02-28T05:57:55;4.57;;;2.33;;
7027;SDS011;3555;53.248;10.336;2023-02-28T06:00:22;4.80;;;2.73;;
7027;SDS011;3555;53.248;10.336;2023-02-28T06:02:49;5.57;;;2.70;;
7027;SDS011;3555;53.248;10.336;2023-02-28T06:05:17;3.83;;;2.57;;
7027;SDS011;3555;53.248;10.336;2023-02-28T06:07:45;3.77;;;2.33;;
7027;SDS011;3555;53.248;10.336;2023-02-28T06:10:12;4.47;;;2.80;;
7027;SDS011;3555;53.248;10.336;2023-02-28T06:12:39;4.97;;;2.90;;
7027;SDS011;3555;53.248;10.336;2023-02-28T06:15:07;4.10;;;2.67;;
7027;SDS011;3555;53.248;10.336;2023-02-28T06:17:37;6.50;;;2.97;;
7027;SDS011;3555;53.248;10.336;2023-02-28T06:20:05;4.50;;;2.97;;
7027;SDS011;3555;53.248;10.336;2023-02-28T06:22:34;4.13;;;2.70;;
7027;SDS011;3555;53.248;10.336;2023-02-28T06:25:01;4.00;;;2.83;;
7027;SDS011;3555;53.248;10.336;2023-02-28T06:27:28;7.27;;;2.83;;
7027;SDS011;3555;53.248;10.336;2023-02-28T06:29:57;3.57;;;2.50;;
7027;SDS011;3555;53.248;10.336;2023-02-28T06:32:24;3.50;;;3.00;;
7027;SDS011;3555;53.248;10.336;2023-02-28T06:34:51;5.53;;;2.97;;
7027;SDS011;3555;53.248;10.336;2023-02-28T06:37:18;3.57;;;2.70;;
7027;SDS011;3555;53.248;10.336;2023-02-28T06:39:46;3.17;;;2.87;;
7027;SDS011;3555;53.248;10.336;2023-02-28T06:42:13;4.13;;;2.83;;
7027;SDS011;3555;53.248;10.336;2023-02-28T06:44:40;2.97;;;2.57;;
7027;SDS011;3555;53.248;10.336;2023-02-28T06:47:08;6.73;;;3.40;;
7027;SDS011;3555;53.248;10.336;2023-02-28T06:49:35;5.17;;;2.73;;
7027;SDS011;3555;53.248;10.336;2023-02-28T06:52:04;5.20;;;3.30;;
7027;SDS011;3555;53.248;10.336;2023-02-28T06:54:30;4.60;;;3.20;;
7027;SDS011;3555;53.248;10.336;2023-02-28T06:56:59;5.10;;;3.70;;
7027;SDS011;3555;53.248;10.336;2023-02-28T06:59:26;9.13;;;5.00;;
7027;SDS011;3555;53.248;10.336;2023-02-28T07:01:52;14.67;;;7.67;;
7027;SDS011;3555;53.248;10.336;2023-02-28T07:04:20;14.87;;;7.30;;
7027;SDS011;3555;53.248;10.336;2023-02-28T07:06:47;23.80;;;10.57;;
7027;SDS011;3555;53.248;10.336;2023-02-28T07:09:14;20.67;;;9.77;;
7027;SDS011;3555;53.248;10.336;2023-02-28T07:11:41;14.57;;;7.73;;
7027;SDS011;3555;53.248;10.336;2023-02-28T07:14:10;13.73;;;7.07;;
7027;SDS011;3555;53.248;10.336;2023-02-28T07:16:37;10.53;;;5.80;;
7027;SDS011;3555;53.248;10.336;2023-02-28T07:19:03;9.00;;;5.07;;
7027;SDS011;3555;53.248;10.336;2023-02-28T07:21:30;7.47;;;5.07;;
7027;SDS011;3555;53.248;10.336;2023-02-28T07:23:57;9.67;;;5.00;;
7027;SDS011;3555;53.248;10.336;2023-02-28T07:26:24;8.67;;;5.03;;
7027;SDS011;3555;53.248;10.336;2023-02-28T07:28:51;6.60;;;4.37;;
7027;SDS011;3555;53.248;10.336;2023-02-28T07:31:19;6.07;;;4.07;;
7027;SDS011;3555;53.248;10.336;2023-02-28T07:33:46;7.47;;;4.83;;
7027;SDS011;3555;53.248;10.336;2023-02-28T07:36:14;6.07;;;4.40;;
7027;SDS011;3555;53.248;10.336;2023-02-28T07:38:44;6.63;;;3.90;;
7027;SDS011;3555;53.248;10.336;2023-02-28T07:41:13;5.57;;;4.20;;
7027;SDS011;3555;53.248;10.336;2023-02-28T07:43:40;5.23;;;4.20;;
7027;SDS011;3555;53.248;10.336;2023-02-28T07:46:07;6.30;;;4.00;;
7027;SDS011;3555;53.248;10.336;2023-02-28T07:48:37;4.53;;;3.20;;
7027;SDS011;3555;53.248;10.336;2023-02-28T07:51:04;4.53;;;2.80;;
7027;SDS011;3555;53.248;10.336;2023-02-28T07:53:31;5.87;;;2.70;;
7027;SDS011;3555;53.248;10.336;2023-02-28T07:55:58;5.83;;;2.87;;
7027;SDS011;3555;53.248;10.336;2023-02-28T07:58:27;3.63;;;2.80;;
7027;SDS011;3555;53.248;10.336;2023-02-28T08:00:55;4.73;;;2.70;;
7027;SDS011;3555;53.248;10.336;2023-02-28T08:03:23;4.50;;;2.77;;
7027;SDS011;3555;53.248;10.336;2023-02-28T08:05:51;3.40;;;2.30;;
7027;SDS011;3555;53.248;10.336;2023-02-28T08:08:18;3.43;;;2.33;;
7027;SDS011;3555;53.248;10.336;2023-02-28T08:10:45;5.33;;;2.80;;
7027;SDS011;3555;53.248;10.336;2023-02-28T08:13:12;6.00;;;3.50;;
7027;SDS011;3555;53.248;10.336;2023-02-28T08:15:40;5.77;;;3.30;;
7027;SDS011;3555;53.248;10.336;2023-02-28T08:18:07;5.97;;;3.50;;
7027;SDS011;3555;53.248;10.336;2023-02-28T08:20:34;8.30;;;4.00;;
7027;SDS011;3555;53.248;10.336;2023-02-28T08:23:02;8.83;;;4.27;;
7027;SDS011;3555;53.248;10.336;2023-02-28T08:25:29;7.67;;;4.20;;
7027;SDS011;3555;53.248;10.336;2023-02-28T08:27:56;6.63;;;4.10;;
7027;SDS011;3555;53.248;10.336;2023-02-28T08:30:23;7.53;;;4.00;;
7027;SDS011;3555;53.248;10.336;2023-02-28T08:32:50;7.10;;;3.67;;
7027;SDS011;3555;53.248;10.336;2023-02-28T08:35:19;7.33;;;3.37;;
7027;SDS011;3555;53.248;10.336;2023-02-28T08:37:47;6.23;;;3.53;;
7027;SDS011;3555;53.248;10.336;2023-02-28T08:40:15;6.27;;;3.17;;
7027;SDS011;3555;53.248;10.336;2023-02-28T08:42:45;6.73;;;4.03;;
7027;SDS011;3555;53.248;10.336;2023-02-28T08:45:12;9.33;;;3.03;;
7027;SDS011;3555;53.248;10.336;2023-02-28T08:47:39;4.97;;;3.17;;
7027;SDS011;3555;53.248;10.336;2023-02-28T08:50:07;3.63;;;2.50;;
7027;SDS011;3555;53.248;10.336;2023-02-28T08:52:41;5.53;;;2.90;;
7027;SDS011;3555;53.248;10.336;2023-02-28T08:55:08;5.07;;;2.60;;
7027;SDS011;3555;53.248;10.336;2023-02-28T08:57:37;4.47;;;2.73;;
7027;SDS011;3555;53.248;10.336;2023-02-28T09:00:04;3.70;;;2.37;;
7027;SDS011;3555;53.248;10.336;2023-02-28T09:02:33;4.37;;;2.50;;
7027;SDS011;3555;53.248;10.336;2023-02-28T09:05:00;3.50;;;2.50;;
7027;SDS011;3555;53.248;10.336;2023-02-28T09:07:26;3.27;;;2.43;;
7027;SDS011;3555;53.248;10.336;2023-02-28T09:09:53;4.53;;;2.57;;
7027;SDS011;3555;53.248;10.336;2023-02-28T09:12:20;4.93;;;2.37;;
7027;SDS011;3555;53.248;10.336;2023-02-28T09:14:49;7.80;;;2.40;;
7027;SDS011;3555;53.248;10.336;2023-02-28T09:17:16;4.37;;;2.47;;
7027;SDS011;3555;53.248;10.336;2023-02-28T09:19:44;6.47;;;2.57;;
7027;SDS011;3555;53.248;10.336;2023-02-28T09:22:13;3.87;;;2.40;;
7027;SDS011;3555;53.248;10.336;2023-02-28T09:24:41;4.03;;;2.20;;
7027;SDS011;3555;53.248;10.336;2023-02-28T09:27:09;4.47;;;2.50;;
7027;SDS011;3555;53.248;10.336;2023-02-28T09:29:36;4.37;;;2.50;;
7027;SDS011;3555;53.248;10.336;2023-02-28T09:32:04;3.93;;;2.50;;
7027;SDS011;3555;53.248;10.336;2023-02-28T09:34:31;4.47;;;3.10;;
7027;SDS011;3555;53.248;10.336;2023-02-28T09:36:58;3.87;;;2.50;;
7027;SDS011;3555;53.248;10.336;2023-02-28T09:39:25;5.10;;;2.87;;
7027;SDS011;3555;53.248;10.336;2023-02-28T09:41:54;3.80;;;2.63;;
7027;SDS011;3555;53.248;10.336;2023-02-28T09:44:24;5.43;;;2.60;;
7027;SDS011;3555;53.248;10.336;2023-02-28T09:46:55;3.90;;;1.90;;
7027;SDS011;3555;53.248;10.336;2023-02-28T09:49:28;4.17;;;2.20;;
7027;SDS011;3555;53.248;10.336;2023-02-28T09:52:04;4.27;;;2.20;;
7027;SDS011;3555;53.248;10.336;2023-02-28T09:54:35;2.27;;;1.60;;
7027;SDS011;3555;53.248;10.336;2023-02-28T09:57:05;3.87;;;1.90;;
7027;SDS011;3555;53.248;10.336;2023-02-28T09:59:43;3.50;;;1.10;;
7027;SDS011;3555;53.248;10.336;2023-02-28T10:02:24;2.77;;;1.33;;
7027;SDS011;3555;53.248;10.336;2023-02-28T10:05:17;2.83;;;1.40;;
7027;SDS011;3555;53.248;10.336;2023-02-28T10:07:59;1.43;;;0.90;;
7027;SDS011;3555;53.248;10.336;2023-02-28T10:10:32;2.43;;;1.30;;
7027;SDS011;3555;53.248;10.336;2023-02-28T10:13:04;1.60;;;1.03;;
7027;SDS011;3555;53.248;10.336;2023-02-28T10:15:38;1.63;;;1.07;;
7027;SDS011;3555;53.248;10.336;2023-02-28T10:18:09;1.30;;;1.00;;
7027;SDS011;3555;53.248;10.336;2023-02-28T10:20:40;1.50;;;0.90;;
7027;SDS011;3555;53.248;10.336;2023-02-28T10:23:11;1.20;;;0.80;;
7027;SDS011;3555;53.248;10.336;2023-02-28T10:25:40;1.93;;;1.10;;
7027;SDS011;3555;53.248;10.336;2023-02-28T10:28:14;1.70;;;0.93;;
7027;SDS011;3555;53.248;10.336;2023-02-28T10:30:43;1.40;;;0.80;;
7027;SDS011;3555;53.248;10.336;2023-02-28T10:33:15;1.50;;;0.90;;
7027;SDS011;3555;53.248;10.336;2023-02-28T10:35:48;1.47;;;1.20;;
7027;SDS011;3555;53.248;10.336;2023-02-28T10:38:16;2.00;;;1.00;;
7027;SDS011;3555;53.248;10.336;2023-02-28T10:40:45;3.70;;;1.20;;
7027;SDS011;3555;53.248;10.336;2023-02-28T10:43:19;2.70;;;1.50;;
7027;SDS011;3555;53.248;10.336;2023-02-28T10:48:57;2.80;;;1.60;;
7027;SDS011;3555;53.248;10.336;2023-02-28T10:51:35;2.63;;;1.40;;
7027;SDS011;3555;53.248;10.336;2023-02-28T10:54:03;2.57;;;1.40;;
7027;SDS011;3555;53.248;10.336;2023-02-28T10:56:31;1.70;;;1.30;;
7027;SDS011;3555;53.248;10.336;2023-02-28T10:58:59;2.00;;;1.23;;
7027;SDS011;3555;53.248;10.336;2023-02-28T11:01:37;2.13;;;1.23;;
7027;SDS011;3555;53.248;10.336;2023-02-28T11:04:16;1.90;;;1.37;;
7027;SDS011;3555;53.248;10.336;2023-02-28T11:06:48;2.83;;;1.30;;
7027;SDS011;3555;53.248;10.336;2023-02-28T11:09:24;4.00;;;1.73;;
7027;SDS011;3555;53.248;10.336;2023-02-28T11:11:55;3.37;;;1.60;;
7027;SDS011;3555;53.248;10.336;2023-02-28T11:14:23;3.03;;;1.60;;
7027;SDS011;3555;53.248;10.336;2023-02-28T11:16:52;2.70;;;1.77;;
7027;SDS011;3555;53.248;10.336;2023-02-28T11:19:20;2.83;;;1.77;;
7027;SDS011;3555;53.248;10.336;2023-02-28T11:21:54;2.50;;;1.53;;
7027;SDS011;3555;53.248;10.336;2023-02-28T11:24:24;5.10;;;1.73;;
7027;SDS011;3555;53.248;10.336;2023-02-28T11:26:53;5.30;;;1.70;;
7027;SDS011;3555;53.248;10.336;2023-02-28T11:29:20;2.57;;;1.70;;
7027;SDS011;3555;53.248;10.336;2023-02-28T11:32:00;2.47;;;1.67;;
7027;SDS011;3555;53.248;10.336;2023-02-28T11:34:46;3.70;;;2.10;;
7027;SDS011;3555;53.248;10.336;2023-02-28T11:37:27;2.37;;;1.67;;
7027;SDS011;3555;53.248;10.336;2023-02-28T11:39:55;4.87;;;1.93;;
7027;SDS011;3555;53.248;10.336;2023-02-28T11:42:34;4.93;;;1.60;;
7027;SDS011;3555;53.248;10.336;2023-02-28T11:45:15;2.47;;;1.70;;
7027;SDS011;3555;53.248;10.336;2023-02-28T11:48:01;3.23;;;1.80;;
7027;SDS011;3555;53.248;10.336;2023-02-28T11:50:44;2.70;;;1.80;;
7027;SDS011;3555;53.248;10.336;2023-02-28T11:53:19;2.37;;;2.03;;
7027;SDS011;3555;53.248;10.336;2023-02-28T11:55:55;2.83;;;1.80;;
7027;SDS011;3555;53.248;10.336;2023-02-28T11:58:32;7.17;;;1.90;;
7027;SDS011;3555;53.248;10.336;2023-02-28T12:01:09;7.93;;;2.37;;
7027;SDS011;3555;53.248;10.336;2023-02-28T12:03:50;5.03;;;2.10;;
7027;SDS011;3555;53.248;10.336;2023-02-28T12:06:25;3.37;;;2.20;;
7027;SDS011;3555;53.248;10.336;2023-02-28T12:09:03;3.47;;;2.23;;
7027;SDS011;3555;53.248;10.336;2023-02-28T12:11:41;3.83;;;1.90;;
7027;SDS011;3555;53.248;10.336;2023-02-28T12:14:21;2.10;;;1.60;;
7027;SDS011;3555;53.248;10.336;2023-02-28T12:17:04;4.13;;;2.23;;
7027;SDS011;3555;53.248;10.336;2023-02-28T12:19:42;3.33;;;1.93;;
7027;SDS011;3555;53.248;10.336;2023-02-28T12:22:19;3.67;;;1.70;;
7027;SDS011;3555;53.248;10.336;2023-02-28T12:28:04;2.43;;;1.57;;
7027;SDS011;3555;53.248;10.336;2023-02-28T12:30:35;1.97;;;1.10;;
7027;SDS011;3555;53.248;10.336;2023-02-28T12:33:06;1.80;;;1.10;;
7027;SDS011;3555;53.248;10.336;2023-02-28T12:35:36;2.10;;;1.30;;
7027;SDS011;3555;53.248;10.336;2023-02-28T12:38:09;1.40;;;1.20;;
7027;SDS011;3555;53.248;10.336;2023-02-28T12:40:43;1.37;;;1.00;;
7027;SDS011;3555;53.248;10.336;2023-02-28T12:43:15;1.90;;;1.23;;
7027;SDS011;3555;53.248;10.336;2023-02-28T12:45:44;2.17;;;1.37;;
7027;SDS011;3555;53.248;10.336;2023-02-28T12:48:14;2.93;;;1.50;;
7027;SDS011;3555;53.248;10.336;2023-02-28T12:50:45;2.13;;;1.40;;
7027;SDS011;3555;53.248;10.336;2023-02-28T12:53:15;2.17;;;1.30;;
7027;SDS011;3555;53.248;10.336;2023-02-28T12:55:54;3.10;;;1.40;;
7027;SDS011;3555;53.248;10.336;2023-02-28T12:58:36;2.17;;;1.23;;
7027;SDS011;3555;53.248;10.336;2023-02-28T13:01:17;1.97;;;1.20;;
7027;SDS011;3555;53.248;10.336;2023-02-28T13:07:20;4.90;;;1.50;;
7027;SDS011;3555;53.248;10.336;2023-02-28T13:10:09;2.93;;;1.47;;
7027;SDS011;3555;53.248;10.336;2023-02-28T13:12:36;1.93;;;1.40;;
7027;SDS011;3555;53.248;10.336;2023-02-28T13:15:18;2.37;;;1.50;;
7027;SDS011;3555;53.248;10.336;2023-02-28T13:17:49;2.43;;;1.20;;
7027;SDS011;3555;53.248;10.336;2023-02-28T13:20:18;1.80;;;1.20;;
7027;SDS011;3555;53.248;10.336;2023-02-28T13:22:48;1.93;;;1.17;;
7027;SDS011;3555;53.248;10.336;2023-02-28T13:31:33;2.73;;;1.40;;
7027;SDS011;3555;53.248;10.336;2023-02-28T13:34:39;2.53;;;1.40;;
7027;SDS011;3555;53.248;10.336;2023-02-28T13:40:22;1.97;;;1.30;;
7027;SDS011;3555;53.248;10.336;2023-02-28T13:43:01;5.20;;;2.23;;
7027;SDS011;3555;53.248;10.336;2023-02-28T13:45:29;2.17;;;1.60;;
7027;SDS011;3555;53.248;10.336;2023-02-28T13:48:03;2.70;;;1.30;;
7027;SDS011;3555;53.248;10.336;2023-02-28T13:50:40;3.03;;;1.50;;
7027;SDS011;3555;53.248;10.336;2023-02-28T13:53:26;2.97;;;1.33;;
7027;SDS011;3555;53.248;10.336;2023-02-28T13:56:32;1.90;;;1.30;;
7027;SDS011;3555;53.248;10.336;2023-02-28T13:59:14;2.33;;;1.30;;
7027;SDS011;3555;53.248;10.336;2023-02-28T14:05:00;2.20;;;1.40;;
7027;SDS011;3555;53.248;10.336;2023-02-28T14:07:32;2.10;;;1.50;;
7027;SDS011;3555;53.248;10.336;2023-02-28T14:10:07;2.50;;;1.53;;
7027;SDS011;3555;53.248;10.336;2023-02-28T14:12:54;2.67;;;1.83;;
7027;SDS011;3555;53.248;10.336;2023-02-28T14:15:28;3.03;;;1.50;;
7027;SDS011;3555;53.248;10.336;2023-02-28T14:18:03;2.10;;;1.37;;
7027;SDS011;3555;53.248;10.336;2023-02-28T14:20:36;2.50;;;1.57;;
7027;SDS011;3555;53.248;10.336;2023-02-28T14:23:09;3.20;;;1.50;;
7027;SDS011;3555;53.248;10.336;2023-02-28T14:25:44;2.87;;;1.57;;
7027;SDS011;3555;53.248;10.336;2023-02-28T14:28:24;2.77;;;1.70;;
7027;SDS011;3555;53.248;10.336;2023-02-28T14:31:10;3.50;;;1.90;;
7027;SDS011;3555;53.248;10.336;2023-02-28T14:33:46;3.37;;;1.57;;
7027;SDS011;3555;53.248;10.336;2023-02-28T14:36:26;2.80;;;1.33;;
7027;SDS011;3555;53.248;10.336;2023-02-28T14:38:58;1.70;;;1.37;;
7027;SDS011;3555;53.248;10.336;2023-02-28T14:41:29;3.13;;;1.43;;
7027;SDS011;3555;53.248;10.336;2023-02-28T14:44:02;2.10;;;1.50;;
7027;SDS011;3555;53.248;10.336;2023-02-28T14:46:39;3.63;;;1.70;;
7027;SDS011;3555;53.248;10.336;2023-02-28T14:49:12;3.67;;;1.47;;
7027;SDS011;3555;53.248;10.336;2023-02-28T14:51:42;2.60;;;1.57;;
7027;SDS011;3555;53.248;10.336;2023-02-28T14:54:12;2.60;;;1.70;;
7027;SDS011;3555;53.248;10.336;2023-02-28T14:56:41;2.40;;;1.40;;
7027;SDS011;3555;53.248;10.336;2023-02-28T14:59:23;1.97;;;1.27;;
7027;SDS011;3555;53.248;10.336;2023-02-28T15:01:52;1.40;;;1.20;;
7027;SDS011;3555;53.248;10.336;2023-02-28T15:04:34;2.60;;;1.07;;
7027;SDS011;3555;53.248;10.336;2023-02-28T15:07:07;2.87;;;1.60;;
7027;SDS011;3555;53.248;10.336;2023-02-28T15:09:34;1.80;;;1.40;;
7027;SDS011;3555;53.248;10.336;2023-02-28T15:12:01;2.00;;;1.70;;
7027;SDS011;3555;53.248;10.336;2023-02-28T15:14:29;2.00;;;1.53;;
7027;SDS011;3555;53.248;10.336;2023-02-28T15:16:57;1.80;;;1.13;;
7027;SDS011;3555;53.248;10.336;2023-02-28T15:19:28;2.30;;;1.30;;
7027;SDS011;3555;53.248;10.336;2023-02-28T15:21:59;3.03;;;1.60;;
7027;SDS011;3555;53.248;10.336;2023-02-28T15:24:31;2.27;;;1.23;;
7027;SDS011;3555;53.248;10.336;2023-02-28T15:27:04;2.40;;;1.30;;
7027;SDS011;3555;53.248;10.336;2023-02-28T15:29:37;2.20;;;1.20;;
7027;SDS011;3555;53.248;10.336;2023-02-28T15:32:21;1.53;;;1.03;;
7027;SDS011;3555;53.248;10.336;2023-02-28T15:34:51;1.90;;;1.10;;
7027;SDS011;3555;53.248;10.336;2023-02-28T15:37:32;1.63;;;1.00;;
7027;SDS011;3555;53.248;10.336;2023-02-28T15:40:11;2.13;;;1.20;;
7027;SDS011;3555;53.248;10.336;2023-02-28T15:42:41;1.93;;;1.10;;
7027;SDS011;3555;53.248;10.336;2023-02-28T15:48:00;3.03;;;1.00;;
7027;SDS011;3555;53.248;10.336;2023-02-28T15:50:27;3.30;;;1.40;;
7027;SDS011;3555;53.248;10.336;2023-02-28T15:52:55;2.63;;;1.00;;